sensor_id;sensor_type;location;lat;lon;timestamp;pressure;altitude;pressure_sealevel;temperature;humidity
46347;BME280;32057;47.830;19.046;2022-12-18T00:03:48;101654.53;;;-2.43;100.00
46347;BME280;32057;47.830;19.046;2022-12-18T00:06:14;101647.34;;;-2.56;100.00
46347;BME280;32057;47.830;19.046;2022-12-18T00:08:40;101653.06;;;-2.58;100.00
46347;BME280;32057;47.830;19.046;2022-12-18T00:11:08;101661.19;;;-2.63;100.00
46347;BME280;32057;47.830;19.046;2022-12-18T00:13:34;101668.81;;;-2.63;100.00
46347;BME280;32057;47.830;19.046;2022-12-18T00:16:05;101670.63;;;-2.62;100.00
46347;BME280;32057;47.830;19.046;2022-12-18T00:18:31;101677.22;;;-2.64;100.00
46347;BME280;32057;47.830;19.046;2022-12-18T00:21:03;101683.81;;;-2.66;100.00
46347;BME280;32057;47.830;19.046;2022-12-18T00:23:29;101682.91;;;-2.57;100.00
46347;BME280;32057;47.830;19.046;2022-12-18T00:25:59;101691.03;;;-2.62;100.00
46347;BME280;32057;47.830;19.046;2022-12-18T00:28:25;101695.03;;;-2.64;100.00
46347;BME280;32057;47.830;19.046;2022-12-18T00:30:50;101699.88;;;-2.67;100.00
46347;BME280;32057;47.830;19.046;2022-12-18T00:33:17;101701.66;;;-2.66;100.00
46347;BME280;32057;47.830;19.046;2022-12-18T00:35:42;101713.97;;;-2.62;100.00
46347;BME280;32057;47.830;19.046;2022-12-18T00:38:08;101717.66;;;-2.58;100.00
46347;BME280;32057;47.830;19.046;2022-12-18T00:40:33;101716.50;;;-2.62;100.00
46347;BME280;32057;47.830;19.046;2022-12-18T00:42:59;101723.38;;;-2.61;100.00
46347;BME280;32057;47.830;19.046;2022-12-18T00:45:29;101721.88;;;-2.58;100.00
46347;BME280;32057;47.830;19.046;2022-12-18T00:47:56;101720.09;;;-2.59;100.00
46347;BME280;32057;47.830;19.046;2022-12-18T00:50:23;101726.09;;;-2.68;100.00
46347;BME280;32057;47.830;19.046;2022-12-18T00:52:49;101722.84;;;-2.75;100.00
46347;BME280;32057;47.830;19.046;2022-12-18T00:55:15;101733.16;;;-2.83;100.00
46347;BME280;32057;47.830;19.046;2022-12-18T00:57:41;101733.63;;;-2.87;100.00
46347;BME280;32057;47.830;19.046;2022-12-18T01:00:09;101732.59;;;-2.97;100.00
46347;BME280;32057;47.830;19.046;2022-12-18T01:02:35;101731.84;;;-2.96;100.00
46347;BME280;32057;47.830;19.046;2022-12-18T01:05:00;101738.28;;;-3.00;100.00
46347;BME280;32057;47.830;19.046;2022-12-18T01:07:26;101736.19;;;-2.95;100.00
46347;BME280;32057;47.830;19.046;2022-12-18T01:09:51;101737.69;;;-2.97;100.00
46347;BME280;32057;47.830;19.046;2022-12-18T01:12:17;101748.91;;;-3.04;100.00
46347;BME280;32057;47.830;19.046;2022-12-18T01:14:42;101763.75;;;-3.09;100.00
46347;BME280;32057;47.830;19.046;2022-12-18T01:17:07;101764.19;;;-3.13;100.00
46347;BME280;32057;47.830;19.046;2022-12-18T01:19:33;101763.00;;;-3.16;100.00
46347;BME280;32057;47.830;19.046;2022-12-18T01:21:58;101765.38;;;-3.18;100.00
46347;BME280;32057;47.830;19.046;2022-12-18T01:24:24;101757.91;;;-3.16;100.00
46347;BME280;32057;47.830;19.046;2022-12-18T01:26:49;101763.44;;;-3.12;100.00
46347;BME280;32057;47.830;19.046;2022-12-18T01:29:15;101771.53;;;-3.16;100.00
46347;BME280;32057;47.830;19.046;2022-12-18T01:31:40;101764.78;;;-3.24;100.00
46347;BME280;32057;47.830;19.046;2022-12-18T01:34:06;101763.72;;;-3.26;100.00
46347;BME280;32057;47.830;19.046;2022-12-18T01:36:34;101766.00;;;-3.29;100.00
46347;BME280;32057;47.830;19.046;2022-12-18T01:39:04;101767.94;;;-3.35;100.00
46347;BME280;32057;47.830;19.046;2022-12-18T01:41:31;101769.72;;;-3.34;100.00
46347;BME280;32057;47.830;19.046;2022-12-18T01:49:52;101782.00;;;-3.39;100.00
46347;BME280;32057;47.830;19.046;2022-12-18T01:52:18;101784.06;;;-3.44;100.00
46347;BME280;32057;47.830;19.046;2022-12-18T01:54:46;101789.78;;;-3.37;100.00
46347;BME280;32057;47.830;19.046;2022-12-18T01:57:12;101786.94;;;-3.41;100.00
46347;BME280;32057;47.830;19.046;2022-12-18T01:59:39;101794.72;;;-3.39;100.00
46347;BME280;32057;47.830;19.046;2022-12-18T02:02:06;101798.47;;;-3.35;100.00
46347;BME280;32057;47.830;19.046;2022-12-18T02:04:32;101802.69;;;-3.27;100.00
46347;BME280;32057;47.830;19.046;2022-12-18T02:07:06;101806.41;;;-3.32;100.00
46347;BME280;32057;47.830;19.046;2022-12-18T02:09:44;101809.06;;;-3.40;100.00
46347;BME280;32057;47.830;19.046;2022-12-18T02:12:30;101807.75;;;-3.36;100.00
46347;BME280;32057;47.830;19.046;2022-12-18T02:17:42;101821.69;;;-3.32;100.00
46347;BME280;32057;47.830;19.046;2022-12-18T02:28:20;101833.19;;;-3.45;100.00
46347;BME280;32057;47.830;19.046;2022-12-18T02:30:47;101839.59;;;-3.57;100.00
46347;BME280;32057;47.830;19.046;2022-12-18T02:33:15;101845.81;;;-3.71;100.00
46347;BME280;32057;47.830;19.046;2022-12-18T02:35:41;101846.13;;;-3.68;100.00
46347;BME280;32057;47.830;19.046;2022-12-18T02:38:07;101854.44;;;-3.77;100.00
46347;BME280;32057;47.830;19.046;2022-12-18T02:40:32;101851.50;;;-3.73;100.00
46347;BME280;32057;47.830;19.046;2022-12-18T02:43:10;101862.25;;;-3.76;100.00
46347;BME280;32057;47.830;19.046;2022-12-18T02:45:35;101850.72;;;-3.81;100.00
46347;BME280;32057;47.830;19.046;2022-12-18T02:48:02;101859.88;;;-3.74;100.00
46347;BME280;32057;47.830;19.046;2022-12-18T02:58:40;101851.53;;;-3.56;100.00
46347;BME280;32057;47.830;19.046;2022-12-18T03:01:13;101856.88;;;-3.70;100.00
46347;BME280;32057;47.830;19.046;2022-12-18T03:03:49;101850.91;;;-3.71;100.00
46347;BME280;32057;47.830;19.046;2022-12-18T03:06:28;101858.38;;;-3.72;100.00
46347;BME280;32057;47.830;19.046;2022-12-18T03:09:02;101873.59;;;-3.81;100.00
46347;BME280;32057;47.830;19.046;2022-12-18T03:11:33;101870.00;;;-3.83;100.00
46347;BME280;32057;47.830;19.046;2022-12-18T03:14:20;101881.38;;;-3.80;100.00
46347;BME280;32057;47.830;19.046;2022-12-18T03:16:49;101882.41;;;-3.86;100.00
46347;BME280;32057;47.830;19.046;2022-12-18T03:19:18;101883.88;;;-3.88;100.00
46347;BME280;32057;47.830;19.046;2022-12-18T03:21:47;101884.66;;;-3.89;100.00
46347;BME280;32057;47.830;19.046;2022-12-18T03:24:15;101887.66;;;-3.85;100.00
46347;BME280;32057;47.830;19.046;2022-12-18T03:26:44;101890.34;;;-3.83;100.00
46347;BME280;32057;47.830;19.046;2022-12-18T03:29:27;101897.19;;;-3.91;100.00
46347;BME280;32057;47.830;19.046;2022-12-18T03:31:59;101895.47;;;-3.74;100.00
46347;BME280;32057;47.830;19.046;2022-12-18T03:34:33;101898.44;;;-3.78;100.00
46347;BME280;32057;47.830;19.046;2022-12-18T03:37:04;101899.50;;;-3.76;100.00
46347;BME280;32057;47.830;19.046;2022-12-18T03:39:30;101897.81;;;-3.85;100.00
46347;BME280;32057;47.830;19.046;2022-12-18T03:42:08;101898.97;;;-3.90;100.00
46347;BME280;32057;47.830;19.046;2022-12-18T03:44:47;101908.59;;;-3.87;100.00
46347;BME280;32057;47.830;19.046;2022-12-18T03:47:46;101905.97;;;-3.71;100.00
46347;BME280;32057;47.830;19.046;2022-12-18T03:52:38;101922.19;;;-3.87;100.00
46347;BME280;32057;47.830;19.046;2022-12-18T03:55:07;101922.28;;;-3.94;100.00
46347;BME280;32057;47.830;19.046;2022-12-18T03:57:33;101923.72;;;-4.05;100.00
46347;BME280;32057;47.830;19.046;2022-12-18T04:02:31;101922.41;;;-4.01;100.00
46347;BME280;32057;47.830;19.046;2022-12-18T04:05:00;101923.91;;;-4.03;100.00
46347;BME280;32057;47.830;19.046;2022-12-18T04:07:27;101928.81;;;-4.05;100.00
46347;BME280;32057;47.830;19.046;2022-12-18T04:09:56;101933.31;;;-4.02;100.00
46347;BME280;32057;47.830;19.046;2022-12-18T04:12:24;101926.00;;;-3.99;100.00
46347;BME280;32057;47.830;19.046;2022-12-18T04:14:51;101933.94;;;-3.96;100.00
46347;BME280;32057;47.830;19.046;2022-12-18T04:17:17;101935.75;;;-3.95;100.00
46347;BME280;32057;47.830;19.046;2022-12-18T04:19:42;101935.44;;;-3.98;100.00
46347;BME280;32057;47.830;19.046;2022-12-18T04:22:09;101943.38;;;-3.95;100.00
46347;BME280;32057;47.830;19.046;2022-12-18T04:24:35;101949.53;;;-3.93;100.00
46347;BME280;32057;47.830;19.046;2022-12-18T04:27:01;101946.44;;;-3.82;100.00
46347;BME280;32057;47.830;19.046;2022-12-18T04:29:27;101949.34;;;-3.70;100.00
46347;BME280;32057;47.830;19.046;2022-12-18T04:31:52;101965.03;;;-3.74;100.00
46347;BME280;32057;47.830;19.046;2022-12-18T04:34:17;101956.16;;;-3.86;100.00
46347;BME280;32057;47.830;19.046;2022-12-18T04:36:43;101965.00;;;-3.83;100.00
46347;BME280;32057;47.830;19.046;2022-12-18T04:39:08;101967.97;;;-3.87;100.00
46347;BME280;32057;47.830;19.046;2022-12-18T04:41:33;101968.19;;;-3.76;100.00
46347;BME280;32057;47.830;19.046;2022-12-18T04:43:59;101972.38;;;-3.77;100.00
46347;BME280;32057;47.830;19.046;2022-12-18T04:46:24;101975.38;;;-3.72;100.00
46347;BME280;32057;47.830;19.046;2022-12-18T04:48:50;101968.81;;;-3.70;100.00
46347;BME280;32057;47.830;19.046;2022-12-18T04:51:15;101975.97;;;-3.75;100.00
46347;BME280;32057;47.830;19.046;2022-12-18T04:53:40;101976.44;;;-3.70;100.00
46347;BME280;32057;47.830;19.046;2022-12-18T04:56:11;101977.94;;;-3.72;100.00
46347;BME280;32057;47.830;19.046;2022-12-18T04:58:38;101979.28;;;-3.92;100.00
46347;BME280;32057;47.830;19.046;2022-12-18T05:01:04;101983.00;;;-3.97;100.00
46347;BME280;32057;47.830;19.046;2022-12-18T05:03:29;101994.28;;;-4.11;100.00
46347;BME280;32057;47.830;19.046;2022-12-18T05:05:55;101988.78;;;-4.07;100.00
46347;BME280;32057;47.830;19.046;2022-12-18T05:08:20;101988.09;;;-3.97;100.00
46347;BME280;32057;47.830;19.046;2022-12-18T05:10:46;101986.50;;;-3.88;100.00
46347;BME280;32057;47.830;19.046;2022-12-18T05:13:11;101993.28;;;-3.80;100.00
46347;BME280;32057;47.830;19.046;2022-12-18T05:15:37;101989.16;;;-3.70;100.00
46347;BME280;32057;47.830;19.046;2022-12-18T05:18:03;101993.47;;;-3.94;100.00
46347;BME280;32057;47.830;19.046;2022-12-18T05:20:29;101995.59;;;-3.90;100.00
46347;BME280;32057;47.830;19.046;2022-12-18T05:22:55;101996.38;;;-3.91;100.00
46347;BME280;32057;47.830;19.046;2022-12-18T05:25:21;101995.34;;;-3.84;100.00
46347;BME280;32057;47.830;19.046;2022-12-18T05:27:47;102001.44;;;-3.91;100.00
46347;BME280;32057;47.830;19.046;2022-12-18T05:30:13;102011.25;;;-4.18;100.00
46347;BME280;32057;47.830;19.046;2022-12-18T05:32:39;102003.63;;;-4.18;100.00
46347;BME280;32057;47.830;19.046;2022-12-18T05:35:07;102010.66;;;-4.16;100.00
46347;BME280;32057;47.830;19.046;2022-12-18T05:37:33;102009.44;;;-4.20;100.00
46347;BME280;32057;47.830;19.046;2022-12-18T05:39:58;102022.00;;;-4.21;100.00
46347;BME280;32057;47.830;19.046;2022-12-18T05:42:24;102019.59;;;-4.20;100.00
46347;BME280;32057;47.830;19.046;2022-12-18T05:44:49;102029.13;;;-4.26;100.00
46347;BME280;32057;47.830;19.046;2022-12-18T05:47:15;102034.13;;;-4.18;100.00
46347;BME280;32057;47.830;19.046;2022-12-18T05:49:40;102040.50;;;-4.06;100.00
46347;BME280;32057;47.830;19.046;2022-12-18T05:52:06;102036.19;;;-4.07;100.00
46347;BME280;32057;47.830;19.046;2022-12-18T05:54:31;102037.16;;;-4.14;100.00
46347;BME280;32057;47.830;19.046;2022-12-18T05:56:57;102043.47;;;-4.26;100.00
46347;BME280;32057;47.830;19.046;2022-12-18T05:59:23;102043.53;;;-4.33;100.00
46347;BME280;32057;47.830;19.046;2022-12-18T06:01:48;102041.56;;;-4.36;100.00
46347;BME280;32057;47.830;19.046;2022-12-18T06:04:14;102053.88;;;-4.32;100.00
46347;BME280;32057;47.830;19.046;2022-12-18T06:06:39;102046.00;;;-4.26;100.00
46347;BME280;32057;47.830;19.046;2022-12-18T06:09:05;102057.16;;;-4.17;100.00
46347;BME280;32057;47.830;19.046;2022-12-18T06:11:35;102056.34;;;-4.25;100.00
46347;BME280;32057;47.830;19.046;2022-12-18T06:14:01;102067.59;;;-4.23;100.00
46347;BME280;32057;47.830;19.046;2022-12-18T06:16:28;102064.63;;;-4.18;100.00
46347;BME280;32057;47.830;19.046;2022-12-18T06:18:56;102080.88;;;-4.25;100.00
46347;BME280;32057;47.830;19.046;2022-12-18T06:21:22;102075.94;;;-4.24;100.00
46347;BME280;32057;47.830;19.046;2022-12-18T06:23:47;102073.16;;;-4.18;100.00
46347;BME280;32057;47.830;19.046;2022-12-18T06:26:13;102073.56;;;-4.06;100.00
46347;BME280;32057;47.830;19.046;2022-12-18T06:28:39;102082.66;;;-3.92;100.00
46347;BME280;32057;47.830;19.046;2022-12-18T06:31:05;102087.16;;;-3.90;100.00
46347;BME280;32057;47.830;19.046;2022-12-18T06:33:31;102091.09;;;-3.85;100.00
46347;BME280;32057;47.830;19.046;2022-12-18T06:36:02;102091.75;;;-3.78;100.00
46347;BME280;32057;47.830;19.046;2022-12-18T06:38:28;102096.59;;;-3.89;100.00
46347;BME280;32057;47.830;19.046;2022-12-18T06:40:54;102096.19;;;-4.16;100.00
46347;BME280;32057;47.830;19.046;2022-12-18T06:43:19;102099.63;;;-4.32;100.00
46347;BME280;32057;47.830;19.046;2022-12-18T06:45:45;102106.06;;;-4.58;100.00
46347;BME280;32057;47.830;19.046;2022-12-18T06:48:11;102116.91;;;-4.75;100.00
46347;BME280;32057;47.830;19.046;2022-12-18T06:50:36;102123.00;;;-4.89;100.00
46347;BME280;32057;47.830;19.046;2022-12-18T06:53:02;102129.03;;;-4.96;100.00
46347;BME280;32057;47.830;19.046;2022-12-18T06:55:27;102128.47;;;-4.93;100.00
46347;BME280;32057;47.830;19.046;2022-12-18T06:57:52;102137.88;;;-4.85;100.00
46347;BME280;32057;47.830;19.046;2022-12-18T07:00:18;102138.78;;;-4.92;100.00
46347;BME280;32057;47.830;19.046;2022-12-18T07:02:43;102140.09;;;-4.95;100.00
46347;BME280;32057;47.830;19.046;2022-12-18T07:05:09;102137.50;;;-4.88;100.00
46347;BME280;32057;47.830;19.046;2022-12-18T07:07:34;102143.66;;;-4.86;100.00
46347;BME280;32057;47.830;19.046;2022-12-18T07:10:00;102144.69;;;-4.77;100.00
46347;BME280;32057;47.830;19.046;2022-12-18T07:12:29;102147.16;;;-4.70;100.00
46347;BME280;32057;47.830;19.046;2022-12-18T07:14:54;102155.13;;;-4.67;100.00
46347;BME280;32057;47.830;19.046;2022-12-18T07:17:20;102159.81;;;-4.63;100.00
46347;BME280;32057;47.830;19.046;2022-12-18T07:19:45;102155.41;;;-4.56;100.00
46347;BME280;32057;47.830;19.046;2022-12-18T07:22:10;102156.78;;;-4.51;100.00
46347;BME280;32057;47.830;19.046;2022-12-18T07:24:36;102152.72;;;-4.42;100.00
46347;BME280;32057;47.830;19.046;2022-12-18T07:27:01;102151.75;;;-4.35;100.00
46347;BME280;32057;47.830;19.046;2022-12-18T07:29:27;102161.22;;;-4.18;100.00
46347;BME280;32057;47.830;19.046;2022-12-18T07:31:52;102164.41;;;-4.12;100.00
46347;BME280;32057;47.830;19.046;2022-12-18T07:34:17;102168.94;;;-4.10;100.00
46347;BME280;32057;47.830;19.046;2022-12-18T07:36:43;102169.94;;;-4.01;100.00
46347;BME280;32057;47.830;19.046;2022-12-18T07:39:10;102172.47;;;-4.01;100.00
46347;BME280;32057;47.830;19.046;2022-12-18T07:41:35;102182.41;;;-3.95;100.00
46347;BME280;32057;47.830;19.046;2022-12-18T07:44:01;102186.97;;;-4.00;100.00
46347;BME280;32057;47.830;19.046;2022-12-18T07:46:26;102190.03;;;-3.95;100.00
46347;BME280;32057;47.830;19.046;2022-12-18T07:48:51;102191.44;;;-3.74;100.00
46347;BME280;32057;47.830;19.046;2022-12-18T07:51:17;102194.91;;;-3.73;100.00
46347;BME280;32057;47.830;19.046;2022-12-18T07:53:43;102205.88;;;-3.66;100.00
46347;BME280;32057;47.830;19.046;2022-12-18T07:56:11;102208.59;;;-3.64;100.00
46347;BME280;32057;47.830;19.046;2022-12-18T07:58:37;102204.81;;;-3.68;100.00
46347;BME280;32057;47.830;19.046;2022-12-18T08:01:12;102207.28;;;-3.45;100.00
46347;BME280;32057;47.830;19.046;2022-12-18T08:03:39;102212.44;;;-3.52;100.00
46347;BME280;32057;47.830;19.046;2022-12-18T08:06:07;102210.53;;;-3.46;100.00
46347;BME280;32057;47.830;19.046;2022-12-18T08:08:34;102222.38;;;-3.30;100.00
46347;BME280;32057;47.830;19.046;2022-12-18T08:11:00;102220.38;;;-3.17;100.00
46347;BME280;32057;47.830;19.046;2022-12-18T08:13:26;102215.84;;;-3.20;100.00
46347;BME280;32057;47.830;19.046;2022-12-18T08:16:00;102218.25;;;-3.21;100.00
46347;BME280;32057;47.830;19.046;2022-12-18T08:18:26;102215.06;;;-3.27;100.00
46347;BME280;32057;47.830;19.046;2022-12-18T08:20:52;102219.84;;;-3.06;100.00
46347;BME280;32057;47.830;19.046;2022-12-18T08:23:17;102219.97;;;-3.13;100.00
46347;BME280;32057;47.830;19.046;2022-12-18T08:25:42;102222.31;;;-2.98;100.00
46347;BME280;32057;47.830;19.046;2022-12-18T08:28:09;102223.13;;;-2.91;100.00
46347;BME280;32057;47.830;19.046;2022-12-18T08:30:35;102227.84;;;-2.78;100.00
46347;BME280;32057;47.830;19.046;2022-12-18T08:33:00;102229.41;;;-2.71;100.00
46347;BME280;32057;47.830;19.046;2022-12-18T08:35:26;102242.91;;;-2.64;100.00
46347;BME280;32057;47.830;19.046;2022-12-18T08:37:52;102235.13;;;-2.65;100.00
46347;BME280;32057;47.830;19.046;2022-12-18T08:40:17;102240.84;;;-2.59;100.00
46347;BME280;32057;47.830;19.046;2022-12-18T08:42:42;102241.91;;;-2.57;100.00
46347;BME280;32057;47.830;19.046;2022-12-18T08:45:27;102246.38;;;-2.63;100.00
46347;BME280;32057;47.830;19.046;2022-12-18T08:47:52;102251.06;;;-2.59;100.00
46347;BME280;32057;47.830;19.046;2022-12-18T08:50:18;102249.47;;;-2.66;100.00
46347;BME280;32057;47.830;19.046;2022-12-18T08:52:43;102254.41;;;-2.51;100.00
46347;BME280;32057;47.830;19.046;2022-12-18T08:55:09;102255.56;;;-2.56;100.00
46347;BME280;32057;47.830;19.046;2022-12-18T08:57:35;102254.22;;;-2.53;100.00
46347;BME280;32057;47.830;19.046;2022-12-18T09:00:00;102255.56;;;-2.56;100.00
46347;BME280;32057;47.830;19.046;2022-12-18T09:02:25;102263.41;;;-2.46;100.00
46347;BME280;32057;47.830;19.046;2022-12-18T09:04:51;102257.88;;;-2.42;100.00
46347;BME280;32057;47.830;19.046;2022-12-18T09:07:16;102260.13;;;-2.45;100.00
46347;BME280;32057;47.830;19.046;2022-12-18T09:09:42;102259.88;;;-2.39;100.00
46347;BME280;32057;47.830;19.046;2022-12-18T09:12:07;102263.16;;;-2.32;100.00
46347;BME280;32057;47.830;19.046;2022-12-18T09:14:32;102268.63;;;-2.20;100.00
46347;BME280;32057;47.830;19.046;2022-12-18T09:16:58;102270.28;;;-2.21;100.00
46347;BME280;32057;47.830;19.046;2022-12-18T09:19:23;102270.97;;;-2.30;100.00
46347;BME280;32057;47.830;19.046;2022-12-18T09:21:49;102281.50;;;-2.27;100.00
46347;BME280;32057;47.830;19.046;2022-12-18T09:24:15;102281.25;;;-2.22;100.00
46347;BME280;32057;47.830;19.046;2022-12-18T09:26:41;102283.94;;;-2.20;100.00
46347;BME280;32057;47.830;19.046;2022-12-18T09:29:06;102283.41;;;-2.09;100.00
46347;BME280;32057;47.830;19.046;2022-12-18T09:31:36;102283.13;;;-2.03;100.00
46347;BME280;32057;47.830;19.046;2022-12-18T09:34:01;102275.34;;;-1.96;100.00
46347;BME280;32057;47.830;19.046;2022-12-18T09:36:27;102286.59;;;-1.94;100.00
46347;BME280;32057;47.830;19.046;2022-12-18T09:38:52;102282.94;;;-2.13;100.00
46347;BME280;32057;47.830;19.046;2022-12-18T09:44:32;102281.91;;;-2.07;100.00
46347;BME280;32057;47.830;19.046;2022-12-18T09:49:36;102276.09;;;-1.97;100.00
46347;BME280;32057;47.830;19.046;2022-12-18T09:52:26;102265.78;;;-1.81;100.00
46347;BME280;32057;47.830;19.046;2022-12-18T09:55:03;102259.97;;;-1.71;100.00
46347;BME280;32057;47.830;19.046;2022-12-18T09:57:33;102261.91;;;-1.69;100.00
46347;BME280;32057;47.830;19.046;2022-12-18T10:00:21;102262.69;;;-1.61;100.00
46347;BME280;32057;47.830;19.046;2022-12-18T10:02:47;102260.13;;;-1.61;100.00
46347;BME280;32057;47.830;19.046;2022-12-18T10:05:17;102261.34;;;-1.57;100.00
46347;BME280;32057;47.830;19.046;2022-12-18T10:08:13;102261.81;;;-1.53;100.00
46347;BME280;32057;47.830;19.046;2022-12-18T10:10:50;102261.34;;;-1.49;100.00
46347;BME280;32057;47.830;19.046;2022-12-18T10:14:02;102255.34;;;-1.41;100.00
46347;BME280;32057;47.830;19.046;2022-12-18T10:19:47;102252.69;;;-1.33;99.31
46347;BME280;32057;47.830;19.046;2022-12-18T10:22:18;102253.28;;;-1.27;99.87
46347;BME280;32057;47.830;19.046;2022-12-18T10:27:30;102251.59;;;-1.18;99.94
46347;BME280;32057;47.830;19.046;2022-12-18T10:29:56;102250.75;;;-1.10;100.00
46347;BME280;32057;47.830;19.046;2022-12-18T10:32:28;102251.47;;;-1.11;99.08
46347;BME280;32057;47.830;19.046;2022-12-18T10:34:56;102245.75;;;-1.08;96.90
46347;BME280;32057;47.830;19.046;2022-12-18T10:37:26;102249.50;;;-1.05;97.08
46347;BME280;32057;47.830;19.046;2022-12-18T10:40:10;102244.25;;;-0.97;96.19
46347;BME280;32057;47.830;19.046;2022-12-18T10:42:37;102247.41;;;-0.91;93.32
46347;BME280;32057;47.830;19.046;2022-12-18T10:45:14;102245.44;;;-0.85;92.49
46347;BME280;32057;47.830;19.046;2022-12-18T10:47:58;102248.28;;;-0.82;89.21
46347;BME280;32057;47.830;19.046;2022-12-18T10:50:33;102249.06;;;-0.83;89.03
46347;BME280;32057;47.830;19.046;2022-12-18T10:53:01;102252.34;;;-0.75;90.23
46347;BME280;32057;47.830;19.046;2022-12-18T10:55:32;102242.56;;;-0.71;87.78
46347;BME280;32057;47.830;19.046;2022-12-18T10:58:25;102247.41;;;-0.74;86.62
46347;BME280;32057;47.830;19.046;2022-12-18T11:01:15;102255.66;;;-0.68;90.15
46347;BME280;32057;47.830;19.046;2022-12-18T11:03:45;102248.38;;;-0.46;90.28
46347;BME280;32057;47.830;19.046;2022-12-18T11:06:16;102237.84;;;-0.49;86.78
46347;BME280;32057;47.830;19.046;2022-12-18T11:08:44;102230.03;;;-0.50;87.76
46347;BME280;32057;47.830;19.046;2022-12-18T11:11:31;102230.59;;;-0.44;90.02
46347;BME280;32057;47.830;19.046;2022-12-18T11:13:58;102231.38;;;-0.45;87.56
46347;BME280;32057;47.830;19.046;2022-12-18T11:16:26;102226.31;;;-0.17;89.92
46347;BME280;32057;47.830;19.046;2022-12-18T11:18:52;102222.97;;;-0.16;86.73
46347;BME280;32057;47.830;19.046;2022-12-18T11:21:18;102224.22;;;-0.22;84.41
46347;BME280;32057;47.830;19.046;2022-12-18T11:23:50;102224.97;;;-0.23;85.66
46347;BME280;32057;47.830;19.046;2022-12-18T11:26:15;102222.72;;;-0.28;84.28
46347;BME280;32057;47.830;19.046;2022-12-18T11:33:50;102218.91;;;-0.14;83.80
46347;BME280;32057;47.830;19.046;2022-12-18T11:36:18;102214.84;;;-0.12;84.78
46347;BME280;32057;47.830;19.046;2022-12-18T11:38:45;102212.28;;;-0.12;82.78
46347;BME280;32057;47.830;19.046;2022-12-18T11:41:34;102211.81;;;-0.08;83.88
46347;BME280;32057;47.830;19.046;2022-12-18T11:44:26;102215.69;;;-0.03;82.82
46347;BME280;32057;47.830;19.046;2022-12-18T11:49:56;102212.09;;;-0.05;82.18
46347;BME280;32057;47.830;19.046;2022-12-18T11:52:28;102209.97;;;-0.01;81.86
46347;BME280;32057;47.830;19.046;2022-12-18T11:55:00;102211.16;;;0.03;83.42
46347;BME280;32057;47.830;19.046;2022-12-18T12:00:13;102210.81;;;0.09;82.97
46347;BME280;32057;47.830;19.046;2022-12-18T12:07:59;102202.53;;;0.11;80.30
46347;BME280;32057;47.830;19.046;2022-12-18T12:10:31;102203.56;;;0.13;80.75
46347;BME280;32057;47.830;19.046;2022-12-18T12:16:03;102207.81;;;0.32;81.15
46347;BME280;32057;47.830;19.046;2022-12-18T12:21:52;102199.09;;;0.30;78.71
46347;BME280;32057;47.830;19.046;2022-12-18T12:24:38;102198.34;;;0.31;79.74
46347;BME280;32057;47.830;19.046;2022-12-18T12:30:20;102206.28;;;0.34;79.14
46347;BME280;32057;47.830;19.046;2022-12-18T12:38:28;102203.69;;;0.43;77.50
46347;BME280;32057;47.830;19.046;2022-12-18T12:41:01;102204.44;;;0.42;79.37
46347;BME280;32057;47.830;19.046;2022-12-18T12:45:55;102218.41;;;0.45;77.87
46347;BME280;32057;47.830;19.046;2022-12-18T12:48:43;102219.47;;;0.47;77.90
46347;BME280;32057;47.830;19.046;2022-12-18T12:53:50;102222.16;;;0.49;77.50
46347;BME280;32057;47.830;19.046;2022-12-18T12:56:19;102231.63;;;0.50;75.94
46347;BME280;32057;47.830;19.046;2022-12-18T13:04:04;102235.22;;;0.52;73.01
46347;BME280;32057;47.830;19.046;2022-12-18T13:06:47;102237.59;;;0.59;74.68
46347;BME280;32057;47.830;19.046;2022-12-18T13:09:15;102244.28;;;0.76;76.34
46347;BME280;32057;47.830;19.046;2022-12-18T13:11:45;102237.41;;;0.85;76.67
46347;BME280;32057;47.830;19.046;2022-12-18T13:14:40;102238.53;;;1.56;79.96
46347;BME280;32057;47.830;19.046;2022-12-18T13:20:25;102247.22;;;1.18;73.89
46347;BME280;32057;47.830;19.046;2022-12-18T13:22:57;102250.34;;;1.06;74.76
46347;BME280;32057;47.830;19.046;2022-12-18T13:25:36;102250.28;;;0.95;73.38
46347;BME280;32057;47.830;19.046;2022-12-18T13:40:58;102261.34;;;0.86;75.79
46347;BME280;32057;47.830;19.046;2022-12-18T13:48:56;102262.97;;;0.75;78.30
46347;BME280;32057;47.830;19.046;2022-12-18T13:51:23;102275.13;;;0.77;79.69
46347;BME280;32057;47.830;19.046;2022-12-18T13:54:35;102272.50;;;0.67;77.65
46347;BME280;32057;47.830;19.046;2022-12-18T13:56:44;102275.84;;;0.66;78.71
46347;BME280;32057;47.830;19.046;2022-12-18T13:59:20;102268.00;;;0.65;78.88
46347;BME280;32057;47.830;19.046;2022-12-18T14:01:50;102277.69;;;0.58;79.98
46347;BME280;32057;47.830;19.046;2022-12-18T14:04:29;102273.19;;;0.56;80.50
46347;BME280;32057;47.830;19.046;2022-12-18T14:07:06;102267.78;;;0.53;82.03
46347;BME280;32057;47.830;19.046;2022-12-18T14:09:56;102263.56;;;0.53;84.59
46347;BME280;32057;47.830;19.046;2022-12-18T14:12:24;102268.03;;;0.37;80.92
46347;BME280;32057;47.830;19.046;2022-12-18T14:15:25;102268.19;;;0.38;85.24
46347;BME280;32057;47.830;19.046;2022-12-18T14:20:56;102264.13;;;0.32;85.52
46347;BME280;32057;47.830;19.046;2022-12-18T14:23:36;102275.16;;;0.31;85.34
46347;BME280;32057;47.830;19.046;2022-12-18T14:26:19;102269.53;;;0.07;84.70
46347;BME280;32057;47.830;19.046;2022-12-18T14:28:46;102279.38;;;0.03;85.44
46347;BME280;32057;47.830;19.046;2022-12-18T14:31:28;102291.00;;;-0.10;86.06
46347;BME280;32057;47.830;19.046;2022-12-18T14:33:54;102292.47;;;-0.03;89.91